createdAt,value
2022-08-17T00:01:27.724Z,96519.22
2022-08-17T00:03:55.044Z,96513.97
2022-08-17T00:06:25.526Z,96511.84
2022-08-17T00:08:55.287Z,96548.38
2022-08-17T00:11:26.191Z,96509.34
2022-08-17T00:13:58.581Z,96514.53
2022-08-17T00:16:56.217Z,96417.34
2022-08-17T00:19:23.128Z,96513.81
2022-08-17T00:22:32.711Z,96511.69
2022-08-17T00:24:38.839Z,96466.69
2022-08-17T00:27:05.640Z,96509.94
2022-08-17T00:29:32.281Z,96508.38
2022-08-17T00:31:58.913Z,96521.72
2022-08-17T00:34:25.614Z,96516.09
2022-08-17T00:36:54.635Z,96516.09
2022-08-17T00:39:21.304Z,96456.53
2022-08-17T00:41:47.953Z,96481.69
2022-08-17T00:44:15.660Z,96481.97
2022-08-17T00:46:43.939Z,96499.81
2022-08-17T00:49:12.724Z,96500.84
2022-08-17T00:51:50.245Z,96503.38
2022-08-17T00:54:44.959Z,96494.88
2022-08-17T00:57:18.441Z,96495.59
2022-08-17T00:59:55.956Z,96500.28
2022-08-17T01:02:40.391Z,96491.25
2022-08-17T01:05:15.140Z,96487.88
2022-08-17T01:07:43.240Z,96498.03
2022-08-17T01:10:58.228Z,96501.81
2022-08-17T01:13:02.593Z,96492.41
2022-08-17T01:15:31.754Z,96517.16
2022-08-17T01:17:58.496Z,96513.63
2022-08-17T01:20:25.190Z,96517.56
2022-08-17T01:22:52.582Z,96520.88
2022-08-17T01:25:20.669Z,96524.91
2022-08-17T01:27:48.708Z,96524.16
2022-08-17T01:30:58.596Z,96520.00
2022-08-17T01:33:04.386Z,96512.53
2022-08-17T01:35:31.048Z,96513.78
2022-08-17T01:37:57.652Z,96501.38
2022-08-17T01:40:35.220Z,96492.44
2022-08-17T01:43:09.036Z,96503.13
2022-08-17T01:45:42.771Z,96508.03
2022-08-17T01:48:09.728Z,96512.16
2022-08-17T01:50:38.036Z,96492.06
2022-08-17T01:53:09.229Z,96367.34
2022-08-17T01:55:45.767Z,96554.53
2022-08-17T01:58:13.108Z,96490.66
2022-08-17T02:00:59.370Z,96454.44
2022-08-17T02:03:28.661Z,96496.44
2022-08-17T02:05:55.661Z,96482.41
2022-08-17T02:08:37.274Z,96397.81
2022-08-17T02:11:14.645Z,96487.84
2022-08-17T02:13:42.728Z,96487.53
2022-08-17T02:16:09.390Z,96494.81
2022-08-17T02:18:36.453Z,96489.81
2022-08-17T02:21:04.293Z,96494.41
2022-08-17T02:23:34.295Z,96495.25
2022-08-17T02:26:01.402Z,96475.44
2022-08-17T02:28:28.886Z,96491.09
2022-08-17T02:31:00.937Z,96499.38
2022-08-17T02:33:41.719Z,96498.56
2022-08-17T02:36:09.424Z,96441.16
2022-08-17T02:38:37.305Z,96489.56
2022-08-17T02:41:04.646Z,96489.56
2022-08-17T02:43:31.780Z,96488.97
2022-08-17T02:45:58.457Z,96479.94
2022-08-17T02:48:31.015Z,96427.78
2022-08-17T02:50:59.655Z,96484.94
2022-08-17T02:53:26.381Z,96495.38
2022-08-17T02:55:53.718Z,96490.47
2022-08-17T02:58:34.613Z,96422.59
2022-08-17T03:01:06.425Z,96490.47
2022-08-17T03:03:34.093Z,96483.34
2022-08-17T03:06:01.231Z,96483.28
2022-08-17T03:08:28.290Z,96438.19
2022-08-17T03:10:55.190Z,96483.44
2022-08-17T03:13:22.309Z,96495.72
2022-08-17T03:15:49.422Z,96456.19
2022-08-17T03:18:24.881Z,96509.47
2022-08-17T03:20:58.204Z,96501.34
2022-08-17T03:23:25.838Z,96502.53
2022-08-17T03:25:54.494Z,96505.63
2022-08-17T03:28:22.821Z,96433.56
2022-08-17T03:30:51.379Z,96505.38
2022-08-17T03:33:18.919Z,96510.66
2022-08-17T03:35:46.245Z,96472.03
2022-08-17T03:38:15.044Z,96449.56
2022-08-17T03:40:56.940Z,96488.34
2022-08-17T03:43:29.344Z,96502.03
2022-08-17T03:46:34.178Z,96513.47
2022-08-17T03:49:25.095Z,96525.72
2022-08-17T03:52:10.665Z,96529.56
2022-08-17T03:54:55.793Z,96465.47
2022-08-17T03:57:22.895Z,96529.84
2022-08-17T03:59:49.926Z,96530.84
2022-08-17T04:02:30.264Z,96543.25
2022-08-17T04:04:57.987Z,96388.56
2022-08-17T04:07:27.638Z,96499.81
2022-08-17T04:09:54.569Z,96540.66
2022-08-17T04:12:23.215Z,96545.53
2022-08-17T04:14:52.255Z,96525.53
2022-08-17T04:17:26.140Z,96542.22
2022-08-17T04:19:53.913Z,96534.59
2022-08-17T04:22:30.508Z,96541.09
2022-08-17T04:25:02.809Z,96542.06
2022-08-17T04:27:29.440Z,96528.91
2022-08-17T04:29:56.325Z,96530.22
2022-08-17T04:33:00.407Z,96483.91
2022-08-17T04:35:10.075Z,96552.53
2022-08-17T04:37:36.805Z,96542.69
2022-08-17T04:40:30.489Z,96465.03
2022-08-17T04:43:02.213Z,96544.28
2022-08-17T04:45:32.228Z,96523.56
2022-08-17T04:48:00.022Z,96551.03
2022-08-17T04:50:27.560Z,96552.13
2022-08-17T04:52:54.421Z,96554.97
2022-08-17T04:55:21.392Z,96549.47
2022-08-17T04:57:48.028Z,96554.69
2022-08-17T05:00:14.981Z,96554.91
2022-08-17T05:02:50.999Z,96550.88
2022-08-17T05:05:20.857Z,96550.88
2022-08-17T05:07:47.938Z,96545.13
2022-08-17T05:10:14.600Z,96540.53
2022-08-17T05:12:41.212Z,96548.06
2022-08-17T05:15:11.906Z,96545.31
2022-08-17T05:17:38.561Z,96549.25
2022-08-17T05:20:05.635Z,96528.00
2022-08-17T05:22:32.268Z,96543.94
2022-08-17T05:24:58.899Z,96527.41
2022-08-17T05:27:30.807Z,96514.34
2022-08-17T05:30:02.202Z,96497.34
2022-08-17T05:32:39.626Z,96548.38
2022-08-17T05:35:07.465Z,96508.16
2022-08-17T05:37:34.135Z,96534.25
2022-08-17T05:40:00.830Z,96543.75
2022-08-17T05:42:27.537Z,96542.94
2022-08-17T05:44:58.017Z,96543.94
2022-08-17T05:47:26.338Z,96538.31
2022-08-17T05:49:53.884Z,96525.88
2022-08-17T05:52:20.525Z,96535.09
2022-08-17T05:55:08.576Z,96542.34
2022-08-17T05:57:52.861Z,96538.97
2022-08-17T06:00:30.253Z,96539.06
2022-08-17T06:03:25.274Z,96543.41
2022-08-17T06:06:01.499Z,96534.78
2022-08-17T06:08:43.535Z,96537.75
2022-08-17T06:11:27.276Z,96540.78
2022-08-17T06:14:04.108Z,96545.47
2022-08-17T06:16:38.721Z,96542.88
2022-08-17T06:19:17.259Z,96535.41
2022-08-17T06:21:49.113Z,96548.19
2022-08-17T06:24:28.383Z,96523.69
2022-08-17T06:26:59.418Z,96537.97
2022-08-17T06:29:46.279Z,96538.34
2022-08-17T06:32:13.559Z,96486.03
2022-08-17T06:34:43.715Z,96535.50
2022-08-17T06:37:30.355Z,96538.47
2022-08-17T06:40:45.596Z,96534.09
2022-08-17T06:43:21.176Z,96539.13
2022-08-17T06:46:02.330Z,96522.28
2022-08-17T06:49:07.511Z,96532.03
2022-08-17T06:51:49.185Z,96532.75
2022-08-17T06:54:23.506Z,96531.34
2022-08-17T06:57:06.449Z,96528.50
2022-08-17T06:59:56.160Z,96514.97
2022-08-17T07:03:13.009Z,96525.69
2022-08-17T07:05:43.989Z,96529.94
2022-08-17T07:08:13.274Z,96527.47
2022-08-17T07:10:47.720Z,96517.69
2022-08-17T07:13:29.396Z,96523.00
2022-08-17T07:16:06.828Z,96515.81
2022-08-17T07:18:34.251Z,96519.41
2022-08-17T07:21:26.907Z,96505.47
2022-08-17T07:24:29.213Z,96522.69
2022-08-17T07:27:11.252Z,96525.88
2022-08-17T07:29:40.941Z,96509.88
2022-08-17T07:32:09.982Z,96467.69
2022-08-17T07:35:11.143Z,96509.91
2022-08-17T07:37:40.934Z,96514.59
2022-08-17T07:40:34.091Z,96504.09
2022-08-17T07:43:39.268Z,96507.84
2022-08-17T07:46:40.852Z,96478.09
2022-08-17T07:49:10.221Z,96500.00
2022-08-17T07:51:57.231Z,96487.75
2022-08-17T07:54:35.694Z,96512.50
2022-08-17T07:57:03.425Z,96501.38
2022-08-17T07:59:34.398Z,96495.97
2022-08-17T08:02:31.792Z,96489.16
2022-08-17T08:05:12.942Z,96502.97
2022-08-17T08:07:42.644Z,96500.94
2022-08-17T08:10:12.367Z,96415.88
2022-08-17T08:12:42.457Z,96464.84
2022-08-17T08:15:17.768Z,96495.81
2022-08-17T08:18:03.076Z,96497.34
2022-08-17T08:20:52.349Z,96492.41
2022-08-17T08:23:39.300Z,96479.38
2022-08-17T08:26:27.650Z,96488.78
2022-08-17T08:29:31.127Z,96489.75
2022-08-17T08:32:34.942Z,96490.78
2022-08-17T08:35:13.674Z,96461.88
2022-08-17T08:37:53.273Z,96473.03
2022-08-17T08:40:29.888Z,96481.28
2022-08-17T08:43:27.509Z,96487.28
2022-08-17T08:46:09.378Z,96483.59
2022-08-17T08:49:02.659Z,96476.25
2022-08-17T08:51:43.022Z,96479.63
2022-08-17T08:54:09.781Z,96472.38
2022-08-17T08:57:19.175Z,96475.97
2022-08-17T08:59:41.790Z,96469.63
2022-08-17T09:02:34.615Z,96484.00
2022-08-17T09:05:14.269Z,96481.59
2022-08-17T09:08:07.305Z,96478.91
2022-08-17T09:10:45.831Z,96481.09
2022-08-17T09:13:15.413Z,96477.53
2022-08-17T09:15:47.997Z,96466.84
2022-08-17T09:19:02.159Z,96498.09
2022-08-17T09:21:15.350Z,96481.50
2022-08-17T09:24:12.782Z,96482.00
2022-08-17T09:27:02.457Z,96473.66
2022-08-17T09:29:35.206Z,96483.13
2022-08-17T09:32:17.546Z,96456.94
2022-08-17T09:34:52.649Z,96451.38
2022-08-17T09:37:23.208Z,96481.66
2022-08-17T09:40:09.703Z,96472.50
2022-08-17T09:42:50.740Z,96474.19
2022-08-17T09:45:24.583Z,96438.22
2022-08-17T09:48:18.382Z,96405.25
2022-08-17T09:51:05.853Z,96444.88
2022-08-17T09:53:36.030Z,96409.31
2022-08-17T09:56:05.605Z,96476.47
2022-08-17T09:58:51.272Z,96468.44
2022-08-17T10:01:37.433Z,96397.78
2022-08-17T10:04:29.453Z,96466.56
2022-08-17T10:07:17.870Z,96191.50
2022-08-17T10:10:14.408Z,96454.72
2022-08-17T10:13:20.137Z,96450.78
2022-08-17T10:15:56.837Z,96456.59
2022-08-17T10:18:41.144Z,96458.75
2022-08-17T10:21:36.348Z,96460.63
2022-08-17T10:24:21.364Z,96449.28
2022-08-17T10:26:56.460Z,96427.25
2022-08-17T10:29:48.876Z,96458.13
2022-08-17T10:32:40.862Z,96450.69
2022-08-17T10:35:31.157Z,96447.19
2022-08-17T10:38:31.904Z,96441.97
2022-08-17T10:41:27.253Z,96447.56
2022-08-17T10:44:41.267Z,96445.09
2022-08-17T10:47:11.357Z,96440.19
2022-08-17T10:50:03.578Z,96436.34
2022-08-17T10:52:30.600Z,96436.34
2022-08-17T10:55:06.042Z,96427.63
2022-08-17T10:57:37.556Z,96422.06
2022-08-17T11:00:19.045Z,96425.06
2022-08-17T11:02:54.570Z,96435.25
2022-08-17T11:05:43.770Z,96404.41
2022-08-17T11:08:57.539Z,96371.09
2022-08-17T11:11:49.969Z,96406.66
2022-08-17T11:14:17.329Z,96430.91
2022-08-17T11:17:04.768Z,96418.44
2022-08-17T11:19:40.633Z,96416.44
2022-08-17T11:22:44.136Z,96421.88
2022-08-17T11:25:17.965Z,96413.19
2022-08-17T11:27:53.901Z,96336.53
2022-08-17T11:30:47.097Z,96404.16
2022-08-17T11:33:30.518Z,96409.41
2022-08-17T11:36:33.332Z,96419.00
2022-08-17T11:39:18.377Z,96409.78
2022-08-17T11:41:58.187Z,96406.41
2022-08-17T11:44:43.512Z,96410.06
2022-08-17T11:47:42.456Z,96405.94
2022-08-17T11:50:36.733Z,96403.38
2022-08-17T11:53:04.132Z,96406.41
2022-08-17T11:55:37.496Z,96407.63
2022-08-17T11:58:37.453Z,96407.97
2022-08-17T12:01:29.320Z,96408.41
2022-08-17T12:04:25.944Z,96411.34
2022-08-17T12:06:59.799Z,96436.84
2022-08-17T12:09:32.251Z,96418.97
2022-08-17T12:12:13.288Z,96413.63
2022-08-17T12:17:40.939Z,96403.91
2022-08-17T12:20:19.547Z,96423.84
2022-08-17T12:23:01.161Z,96438.47
2022-08-17T12:25:39.099Z,96425.34
2022-08-17T12:28:37.912Z,96432.91
2022-08-17T12:31:15.638Z,96375.53
2022-08-17T12:33:47.515Z,96430.00
2022-08-17T12:36:16.975Z,96410.66
2022-08-17T12:39:14.330Z,96423.47
2022-08-17T12:41:50.911Z,96427.75
2022-08-17T12:44:19.258Z,96419.25
2022-08-17T12:46:45.933Z,96415.31
2022-08-17T12:49:35.529Z,96391.41
2022-08-17T12:52:11.327Z,96422.34
2022-08-17T12:54:46.869Z,96416.53
2022-08-17T12:57:19.185Z,96324.09
2022-08-17T12:59:50.378Z,96415.38
2022-08-17T13:02:24.728Z,96411.78
2022-08-17T13:04:51.495Z,96406.56
2022-08-17T13:07:42.508Z,96392.31
2022-08-17T13:10:18.411Z,96414.25
2022-08-17T13:12:45.385Z,96345.69
2022-08-17T13:15:23.979Z,96378.78
2022-08-17T13:18:00.173Z,96418.63
2022-08-17T13:20:26.888Z,96412.72
2022-08-17T13:22:59.484Z,96378.22
2022-08-17T13:25:27.793Z,96400.13
2022-08-17T13:27:55.877Z,96404.03
2022-08-17T13:30:29.288Z,96408.47
2022-08-17T13:32:57.316Z,96401.34
2022-08-17T13:35:44.147Z,96391.84
2022-08-17T13:38:35.911Z,96396.09
2022-08-17T13:41:04.136Z,96399.88
2022-08-17T13:43:41.023Z,96400.72
2022-08-17T13:46:20.404Z,96387.91
2022-08-17T13:48:57.948Z,96384.13
2022-08-17T13:51:28.492Z,96386.16
2022-08-17T13:53:59.287Z,96342.78
2022-08-17T13:56:38.608Z,96381.41
2022-08-17T13:59:12.741Z,96396.56
2022-08-17T14:01:52.556Z,96393.13
2022-08-17T14:04:28.024Z,96356.72
2022-08-17T14:07:13.032Z,96385.75
2022-08-17T14:09:57.716Z,96393.00
2022-08-17T14:12:26.844Z,96393.13
2022-08-17T14:14:55.222Z,96387.28
2022-08-17T14:17:23.237Z,96379.50
2022-08-17T14:19:51.069Z,96378.91
2022-08-17T14:22:23.772Z,96349.38
2022-08-17T14:24:51.379Z,96368.59
2022-08-17T14:27:19.467Z,96351.09
2022-08-17T14:29:46.794Z,96317.53
2022-08-17T14:32:37.067Z,96379.22
2022-08-17T14:35:05.788Z,96375.03
2022-08-17T14:37:34.467Z,96376.69
2022-08-17T14:40:05.181Z,96371.38
2022-08-17T14:42:33.849Z,96371.00
2022-08-17T14:45:06.233Z,96379.75
2022-08-17T14:47:52.888Z,96315.53
2022-08-17T14:50:22.717Z,96379.25
2022-08-17T14:52:50.555Z,96369.44
2022-08-17T14:55:18.379Z,96359.84
2022-08-17T14:57:45.655Z,96374.56
2022-08-17T15:00:12.969Z,96378.44
2022-08-17T15:02:54.953Z,96362.84
2022-08-17T15:05:24.577Z,96377.91
2022-08-17T15:07:53.398Z,96373.25
2022-08-17T15:10:20.907Z,96231.63
2022-08-17T15:12:48.181Z,96355.06
2022-08-17T15:15:17.347Z,96363.53
2022-08-17T15:17:54.624Z,96355.78
2022-08-17T15:20:27.608Z,96378.03
2022-08-17T15:22:57.269Z,96376.94
2022-08-17T15:25:25.870Z,96371.00
2022-08-17T15:27:52.933Z,96341.38
2022-08-17T15:30:20.435Z,96372.41
2022-08-17T15:32:51.339Z,96359.00
2022-08-17T15:35:27.141Z,96349.44
2022-08-17T15:37:54.442Z,96378.78
2022-08-17T15:40:21.087Z,96375.47
2022-08-17T15:42:47.750Z,96378.03
2022-08-17T15:45:16.679Z,96359.31
2022-08-17T15:47:43.361Z,96376.31
2022-08-17T15:50:10.760Z,96399.66
2022-08-17T15:52:40.355Z,96389.47
2022-08-17T15:55:11.484Z,96376.66
2022-08-17T15:57:38.803Z,96392.25
2022-08-17T16:00:08.601Z,96389.91
2022-08-17T16:03:44.481Z,96391.91
2022-08-17T16:05:25.341Z,96384.25
2022-08-17T16:07:53.261Z,96386.44
2022-08-17T16:10:21.141Z,96399.78
2022-08-17T16:12:49.688Z,96390.72
2022-08-17T16:15:17.292Z,96402.06
2022-08-17T16:17:43.996Z,96405.75
2022-08-17T16:20:20.392Z,96396.06
2022-08-17T16:22:49.815Z,96401.28
2022-08-17T16:25:23.191Z,96395.34
2022-08-17T16:28:09.829Z,96400.78
2022-08-17T16:30:37.504Z,96403.38
2022-08-17T16:33:05.050Z,96397.72
2022-08-17T16:35:31.896Z,96403.63
2022-08-17T16:37:58.839Z,96409.78
2022-08-17T16:40:28.665Z,96410.25
2022-08-17T16:42:56.198Z,96383.00
2022-08-17T16:45:36.643Z,96413.78
2022-08-17T16:48:04.361Z,96408.47
2022-08-17T16:50:31.944Z,96343.19
2022-08-17T16:53:17.383Z,96428.00
2022-08-17T16:55:45.143Z,96423.22
2022-08-17T16:58:12.024Z,96436.72
2022-08-17T17:00:39.528Z,96432.44
2022-08-17T17:03:19.432Z,96435.09
2022-08-17T17:05:58.765Z,96433.59
2022-08-17T17:08:34.816Z,96442.19
2022-08-17T17:11:14.841Z,96444.75
2022-08-17T17:13:54.175Z,96442.66
2022-08-17T17:16:31.327Z,96455.84
2022-08-17T17:19:34.340Z,96454.16
2022-08-17T17:22:08.375Z,96467.03
2022-08-17T17:24:40.946Z,96462.78
2022-08-17T17:27:34.814Z,96469.81
2022-08-17T17:30:09.907Z,96467.72
2022-08-17T17:32:44.288Z,96404.97
2022-08-17T17:35:24.248Z,96484.00
2022-08-17T17:37:53.204Z,96484.31
2022-08-17T17:40:37.012Z,96484.69
2022-08-17T17:43:34.643Z,96175.00
2022-08-17T17:46:28.033Z,96493.41
2022-08-17T17:48:55.109Z,96475.97
2022-08-17T17:52:06.860Z,96495.22
2022-08-17T17:54:46.865Z,96499.91
2022-08-17T17:57:34.817Z,96503.19
2022-08-17T18:00:06.552Z,96516.16
2022-08-17T18:02:51.728Z,96520.91
2022-08-17T18:05:37.377Z,96518.94
2022-08-17T18:08:32.388Z,96521.34
2022-08-17T18:11:24.612Z,96480.31
2022-08-17T18:13:57.399Z,96537.00
2022-08-17T18:16:27.430Z,96522.84
2022-08-17T18:18:57.630Z,96531.59
2022-08-17T18:21:35.028Z,96525.44
2022-08-17T18:24:04.261Z,96536.31
2022-08-17T18:26:50.082Z,96540.75
2022-08-17T18:29:37.577Z,96530.84
2022-08-17T18:32:23.838Z,96541.97
2022-08-17T18:34:57.283Z,96468.34
2022-08-17T18:37:47.215Z,96550.38
2022-08-17T18:40:17.163Z,96542.09
2022-08-17T18:43:00.892Z,96544.78
2022-08-17T18:45:49.129Z,96555.69
2022-08-17T18:48:49.784Z,96542.94
2022-08-17T18:51:46.156Z,96556.81
2022-08-17T18:54:20.127Z,96553.19
2022-08-17T18:56:53.683Z,96556.81
2022-08-17T18:59:28.280Z,96559.31
2022-08-17T19:02:45.193Z,96553.84
2022-08-17T19:05:31.058Z,96555.56
2022-08-17T19:08:27.404Z,96483.91
2022-08-17T19:10:59.886Z,96559.97
2022-08-17T19:13:40.759Z,96568.78
2022-08-17T19:16:15.387Z,96570.34
2022-08-17T19:18:53.744Z,96578.38
2022-08-17T19:21:43.011Z,96574.16
2022-08-17T19:24:14.262Z,96559.31
2022-08-17T19:26:53.608Z,96575.34
2022-08-17T19:29:29.999Z,96533.78
2022-08-17T19:31:58.771Z,96571.53
2022-08-17T19:34:33.495Z,96575.59
2022-08-17T19:37:26.518Z,96571.22
2022-08-17T19:39:53.106Z,96570.09
2022-08-17T19:42:26.157Z,96577.50
2022-08-17T19:45:03.000Z,96580.66
2022-08-17T19:47:53.336Z,96567.25
2022-08-17T19:50:30.213Z,96579.16
2022-08-17T19:53:07.790Z,96582.91
2022-08-17T19:56:17.475Z,96591.94
2022-08-17T19:58:49.917Z,96584.50
2022-08-17T20:01:34.966Z,96555.53
2022-08-17T20:04:19.619Z,96588.66
2022-08-17T20:06:49.583Z,96610.53
2022-08-17T20:09:33.402Z,96607.50
2022-08-17T20:12:16.488Z,96608.72
2022-08-17T20:15:29.606Z,96603.72
2022-08-17T20:18:00.300Z,96599.09
2022-08-17T20:20:48.545Z,96590.44
2022-08-17T20:23:40.476Z,96591.41
2022-08-17T20:26:20.677Z,96597.06
2022-08-17T20:29:07.611Z,96600.56
2022-08-17T20:31:49.772Z,96604.19
2022-08-17T20:34:30.865Z,96264.25
2022-08-17T20:37:10.991Z,96607.22
2022-08-17T20:39:42.487Z,96543.63
2022-08-17T20:42:15.069Z,96609.50
2022-08-17T20:44:43.232Z,96555.56
2022-08-17T20:47:17.366Z,96595.97
2022-08-17T20:49:47.176Z,96614.50
2022-08-17T20:52:35.368Z,96607.44
2022-08-17T20:55:04.422Z,96599.41
2022-08-17T20:57:31.361Z,96599.69
2022-08-17T21:00:14.975Z,96601.91
2022-08-17T21:02:47.388Z,96601.91
2022-08-17T21:05:59.802Z,96608.91
2022-08-17T21:08:30.083Z,96598.19
2022-08-17T21:10:58.443Z,96606.81
2022-08-17T21:13:40.383Z,96604.56
2022-08-17T21:16:09.900Z,96606.53
2022-08-17T21:18:59.228Z,96607.19
2022-08-17T21:21:26.020Z,96614.94
2022-08-17T21:24:22.512Z,96616.53
2022-08-17T21:27:14.040Z,96611.03
2022-08-17T21:30:06.557Z,96602.34
2022-08-17T21:32:40.435Z,96610.22
2022-08-17T21:35:11.444Z,96615.88
2022-08-17T21:41:54.641Z,96607.72
2022-08-17T21:44:48.583Z,96582.88
2022-08-17T21:47:28.583Z,96606.44
2022-08-17T21:50:12.839Z,96585.81
2022-08-17T21:52:40.596Z,96603.91
2022-08-17T21:55:08.133Z,96598.38
2022-08-17T21:57:41.866Z,96608.50
2022-08-17T22:00:32.191Z,96536.38
2022-08-17T22:03:01.912Z,96595.22
2022-08-17T22:05:40.009Z,96585.50
2022-08-17T22:08:19.143Z,96589.31
2022-08-17T22:10:50.476Z,96589.03
2022-08-17T22:13:17.709Z,96579.72
2022-08-17T22:15:47.205Z,96587.75
2022-08-17T22:18:21.674Z,96588.28
2022-08-17T22:21:01.725Z,96606.84
2022-08-17T22:23:53.880Z,96588.31
2022-08-17T22:26:24.220Z,96587.81
2022-08-17T22:28:54.374Z,96593.03
2022-08-17T22:31:29.096Z,96585.34
2022-08-17T22:34:01.485Z,96594.50
2022-08-17T22:36:30.943Z,96590.78
2022-08-17T22:39:07.504Z,96584.25
2022-08-17T22:41:54.381Z,96587.53
2022-08-17T22:44:27.796Z,96591.03
2022-08-17T22:46:56.568Z,96581.22
2022-08-17T22:49:38.605Z,96601.59
2022-08-17T22:52:29.200Z,96583.75
2022-08-17T22:55:35.014Z,96587.53
2022-08-17T22:58:28.164Z,96581.91
2022-08-17T23:00:55.811Z,96578.59
2022-08-17T23:03:27.234Z,96578.47
2022-08-17T23:06:06.853Z,96568.06
2022-08-17T23:08:36.464Z,96576.97
2022-08-17T23:11:05.391Z,96548.00
2022-08-17T23:13:33.528Z,96584.19
2022-08-17T23:16:00.328Z,96514.00
2022-08-17T23:18:27.395Z,96578.94
2022-08-17T23:20:54.299Z,96571.19
2022-08-17T23:23:23.882Z,96576.31
2022-08-17T23:25:50.995Z,96564.38
2022-08-17T23:28:17.656Z,96571.34
2022-08-17T23:30:45.106Z,96565.53
2022-08-17T23:33:30.046Z,96573.81
2022-08-17T23:36:00.225Z,96581.38
2022-08-17T23:38:27.877Z,96565.16
2022-08-17T23:41:00.065Z,96574.38
2022-08-17T23:43:28.810Z,96567.44
2022-08-17T23:45:57.529Z,96558.13
2022-08-17T23:48:34.913Z,96563.38
2022-08-17T23:51:17.353Z,96578.72
2022-08-17T23:53:50.124Z,96579.25
2022-08-17T23:56:23.295Z,96557.69
2022-08-17T23:58:51.412Z,96570.06
